createdAt,value
2023-03-06T00:00:52.441Z,5.80
2023-03-06T00:03:22.971Z,6.05
2023-03-06T00:05:50.703Z,6.13
2023-03-06T00:08:18.182Z,5.43
2023-03-06T00:10:45.944Z,5.70
2023-03-06T00:13:15.157Z,6.10
2023-03-06T00:15:44.844Z,6.10
2023-03-06T00:18:15.186Z,5.57
2023-03-06T00:20:44.416Z,5.80
2023-03-06T00:23:12.501Z,5.60
2023-03-06T00:25:43.434Z,5.72
2023-03-06T00:28:12.348Z,5.40
2023-03-06T00:30:39.943Z,6.28
2023-03-06T00:33:07.945Z,5.53
2023-03-06T00:35:35.350Z,6.10
2023-03-06T00:38:02.683Z,6.18
2023-03-06T00:40:29.795Z,6.20
2023-03-06T00:42:58.471Z,6.60
2023-03-06T00:45:27.901Z,6.13
2023-03-06T00:47:55.195Z,5.38
2023-03-06T00:50:27.207Z,5.90
2023-03-06T00:52:58.210Z,5.80
2023-03-06T00:55:25.410Z,6.30
2023-03-06T00:57:52.729Z,5.00
2023-03-06T01:00:22.770Z,6.00
2023-03-06T01:02:53.642Z,5.57
2023-03-06T01:05:22.510Z,5.72
2023-03-06T01:07:49.787Z,6.22
2023-03-06T01:10:16.996Z,6.07
2023-03-06T01:12:45.336Z,5.25
2023-03-06T01:15:15.800Z,5.53
2023-03-06T01:17:45.348Z,5.75
2023-03-06T01:20:15.936Z,6.10
2023-03-06T01:22:43.037Z,6.15
2023-03-06T01:25:12.947Z,5.40
2023-03-06T01:27:41.926Z,5.20
2023-03-06T01:30:14.067Z,5.45
2023-03-06T01:32:41.368Z,5.45
2023-03-06T01:35:09.219Z,5.15
2023-03-06T01:37:37.749Z,5.38
2023-03-06T01:40:09.078Z,5.60
2023-03-06T01:42:36.399Z,5.40
2023-03-06T01:45:05.884Z,5.22
2023-03-06T01:47:35.140Z,5.45
2023-03-06T01:50:04.042Z,5.13
2023-03-06T01:52:48.414Z,5.13
2023-03-06T01:55:23.647Z,4.90
2023-03-06T01:57:54.074Z,4.95
2023-03-06T02:00:24.981Z,5.07
2023-03-06T02:02:56.653Z,5.60
2023-03-06T02:05:24.663Z,4.57
2023-03-06T02:07:53.149Z,5.60
2023-03-06T02:10:20.843Z,5.22
2023-03-06T02:12:53.011Z,5.25
2023-03-06T02:15:24.080Z,4.60
2023-03-06T02:17:54.271Z,5.10
2023-03-06T02:20:31.890Z,5.03
2023-03-06T02:23:10.309Z,4.82
2023-03-06T02:25:48.066Z,5.43
2023-03-06T02:28:18.144Z,4.70
2023-03-06T02:30:51.527Z,5.28
2023-03-06T02:33:22.122Z,4.78
2023-03-06T02:35:59.907Z,5.28
2023-03-06T02:38:35.167Z,4.95
2023-03-06T02:41:04.796Z,4.95
2023-03-06T02:43:37.651Z,5.20
2023-03-06T02:46:05.048Z,4.55
2023-03-06T02:48:33.198Z,5.07
2023-03-06T02:51:00.939Z,5.78
2023-03-06T02:53:28.464Z,5.07
2023-03-06T02:55:58.212Z,5.53
2023-03-06T02:58:29.219Z,5.43
2023-03-06T03:00:56.645Z,4.50
2023-03-06T03:03:25.002Z,4.80
2023-03-06T03:05:56.060Z,4.30
2023-03-06T03:08:28.247Z,4.82
2023-03-06T03:11:00.214Z,5.78
2023-03-06T03:16:01.610Z,5.13
2023-03-06T03:18:29.427Z,4.90
2023-03-06T03:20:59.279Z,5.22
2023-03-06T03:23:28.390Z,4.78
2023-03-06T03:26:13.559Z,4.82
2023-03-06T03:28:47.071Z,5.28
2023-03-06T03:31:17.514Z,4.72
2023-03-06T03:33:44.684Z,4.97
2023-03-06T03:36:15.724Z,5.10
2023-03-06T03:38:46.333Z,5.95
2023-03-06T03:41:15.204Z,4.95
2023-03-06T03:43:42.922Z,5.60
2023-03-06T03:46:10.185Z,4.97
2023-03-06T03:48:40.373Z,4.95
2023-03-06T03:51:10.644Z,4.10
2023-03-06T03:56:41.725Z,5.13
2023-03-06T03:59:16.684Z,4.85
2023-03-06T04:02:00.227Z,4.38
2023-03-06T04:04:27.730Z,4.40
2023-03-06T04:06:58.001Z,4.43
2023-03-06T04:09:27.863Z,4.47
2023-03-06T04:11:55.361Z,4.80
2023-03-06T04:14:23.019Z,4.13
2023-03-06T04:16:50.230Z,4.20
2023-03-06T04:19:18.566Z,3.92
2023-03-06T04:21:48.827Z,3.97
2023-03-06T04:24:16.245Z,4.05
2023-03-06T04:26:45.797Z,4.05
2023-03-06T04:29:13.221Z,3.50
2023-03-06T04:31:40.528Z,3.55
2023-03-06T04:34:08.225Z,3.88
2023-03-06T04:36:38.467Z,3.70
2023-03-06T04:39:09.102Z,3.95
2023-03-06T04:41:36.769Z,3.67
2023-03-06T04:44:04.321Z,3.90
2023-03-06T04:46:31.470Z,4.40
2023-03-06T04:49:01.269Z,4.15
2023-03-06T04:51:28.776Z,4.32
2023-03-06T04:53:56.235Z,4.30
2023-03-06T04:56:28.233Z,4.07
2023-03-06T04:58:57.951Z,3.97
2023-03-06T05:01:25.264Z,4.03
2023-03-06T05:03:52.442Z,3.95
2023-03-06T05:06:24.701Z,3.50
2023-03-06T05:08:51.933Z,3.97
2023-03-06T05:11:19.276Z,3.67
2023-03-06T05:13:46.713Z,3.42
2023-03-06T05:16:13.838Z,3.55
2023-03-06T05:18:41.273Z,3.40
2023-03-06T05:21:08.888Z,3.67
2023-03-06T05:23:39.106Z,3.10
2023-03-06T05:26:11.531Z,3.72
2023-03-06T05:28:39.639Z,3.60
2023-03-06T05:31:08.126Z,3.30
2023-03-06T05:33:40.522Z,3.38
2023-03-06T05:36:09.063Z,3.70
2023-03-06T05:38:36.382Z,3.35
2023-03-06T05:41:06.075Z,3.60
2023-03-06T05:43:35.865Z,3.30
2023-03-06T05:46:08.668Z,3.45
2023-03-06T05:48:38.179Z,2.70
2023-03-06T05:51:06.203Z,3.00
2023-03-06T05:53:33.460Z,3.00
2023-03-06T05:56:06.676Z,3.10
2023-03-06T06:01:01.370Z,2.88
2023-03-06T06:03:28.993Z,3.00
2023-03-06T06:05:56.618Z,3.10
2023-03-06T06:08:23.746Z,2.95
2023-03-06T06:10:53.597Z,3.83
2023-03-06T06:13:21.189Z,3.92
2023-03-06T06:15:48.412Z,3.47
2023-03-06T06:18:15.791Z,3.40
2023-03-06T06:20:43.374Z,3.33
2023-03-06T06:23:15.016Z,3.40
2023-03-06T06:25:42.323Z,3.40
2023-03-06T06:28:12.402Z,3.28
2023-03-06T06:30:39.706Z,3.60
2023-03-06T06:33:09.346Z,2.90
2023-03-06T06:35:37.375Z,3.35
2023-03-06T06:38:04.580Z,3.45
2023-03-06T06:40:34.140Z,3.03
2023-03-06T06:43:01.379Z,2.90
2023-03-06T06:45:30.872Z,3.30
2023-03-06T06:47:58.217Z,2.90
2023-03-06T06:50:28.012Z,3.45
2023-03-06T06:52:55.317Z,2.92
2023-03-06T06:55:22.419Z,2.80
2023-03-06T06:57:50.754Z,2.90
2023-03-06T07:00:18.838Z,3.20
2023-03-06T07:02:49.274Z,3.22
2023-03-06T07:05:21.001Z,3.28
2023-03-06T07:07:50.864Z,3.00
2023-03-06T07:10:20.012Z,2.60
2023-03-06T07:12:48.493Z,3.25
2023-03-06T07:15:16.909Z,3.08
2023-03-06T07:17:44.180Z,2.92
2023-03-06T07:20:15.130Z,3.22
2023-03-06T07:22:50.727Z,2.85
2023-03-06T07:25:22.382Z,2.95
2023-03-06T07:27:54.581Z,2.90
2023-03-06T07:30:22.697Z,2.97
2023-03-06T07:32:54.235Z,2.92
2023-03-06T07:35:22.698Z,3.05
2023-03-06T07:37:52.065Z,3.00
2023-03-06T07:40:20.819Z,2.65
2023-03-06T07:42:50.619Z,2.60
2023-03-06T07:45:24.622Z,3.35
2023-03-06T07:47:52.590Z,2.90
2023-03-06T07:50:22.797Z,3.05
2023-03-06T07:52:54.074Z,2.83
2023-03-06T07:55:21.282Z,2.67
2023-03-06T07:57:51.629Z,2.75
2023-03-06T08:00:19.192Z,2.33
2023-03-06T08:02:46.619Z,2.92
2023-03-06T08:05:17.280Z,2.63
2023-03-06T08:07:47.346Z,2.33
2023-03-06T08:10:16.715Z,2.67
2023-03-06T08:12:46.276Z,2.67
2023-03-06T08:15:14.100Z,2.80
2023-03-06T08:17:41.372Z,2.25
2023-03-06T08:20:10.393Z,2.70
2023-03-06T08:22:38.090Z,2.40
2023-03-06T08:25:06.321Z,2.70
2023-03-06T08:27:39.098Z,2.92
2023-03-06T08:30:08.342Z,2.50
2023-03-06T08:32:36.847Z,2.30
2023-03-06T08:35:05.235Z,2.50
2023-03-06T08:37:32.615Z,2.30
2023-03-06T08:40:04.617Z,2.72
2023-03-06T08:42:32.569Z,2.65
2023-03-06T08:44:59.926Z,2.70
2023-03-06T08:47:27.055Z,2.80
2023-03-06T08:49:54.500Z,2.33
2023-03-06T08:52:21.693Z,2.63
2023-03-06T08:54:51.009Z,2.40
2023-03-06T08:57:23.842Z,3.28
2023-03-06T08:59:50.996Z,2.63
2023-03-06T09:02:20.459Z,2.97
2023-03-06T09:04:47.912Z,2.45
2023-03-06T09:07:17.522Z,2.33
2023-03-06T09:09:44.680Z,2.53
2023-03-06T09:12:12.192Z,2.30
2023-03-06T09:14:39.596Z,2.65
2023-03-06T09:17:08.877Z,2.72
2023-03-06T09:19:36.521Z,3.22
2023-03-06T09:22:06.266Z,2.53
2023-03-06T09:24:35.645Z,2.55
2023-03-06T09:27:03.199Z,2.10
2023-03-06T09:29:32.876Z,2.50
2023-03-06T09:32:02.321Z,2.35
2023-03-06T09:34:29.844Z,2.58
2023-03-06T09:36:57.776Z,2.60
2023-03-06T09:39:28.176Z,2.47
2023-03-06T09:41:57.441Z,2.40
2023-03-06T09:44:34.851Z,2.30
2023-03-06T09:47:22.840Z,2.50
2023-03-06T09:50:17.751Z,2.50
2023-03-06T09:53:07.555Z,2.45
2023-03-06T09:55:41.450Z,2.60
2023-03-06T09:58:25.875Z,2.45
2023-03-06T10:00:53.298Z,2.55
2023-03-06T10:03:33.011Z,2.50
2023-03-06T10:06:29.796Z,2.65
2023-03-06T10:09:03.393Z,2.30
2023-03-06T10:11:52.756Z,2.58
2023-03-06T10:14:58.842Z,2.22
2023-03-06T10:17:31.161Z,2.40
2023-03-06T10:20:02.168Z,2.33
2023-03-06T10:22:33.538Z,2.20
2023-03-06T10:25:16.511Z,2.35
2023-03-06T10:27:49.726Z,2.65
2023-03-06T10:30:55.792Z,2.20
2023-03-06T10:33:22.968Z,2.47
2023-03-06T10:35:56.161Z,2.10
2023-03-06T10:38:32.506Z,2.20
2023-03-06T10:41:11.194Z,2.10
2023-03-06T10:44:01.206Z,2.47
2023-03-06T10:46:31.915Z,2.47
2023-03-06T10:49:30.790Z,2.50
2023-03-06T10:52:09.101Z,2.40
2023-03-06T10:54:41.508Z,2.17
2023-03-06T10:57:28.733Z,2.28
2023-03-06T10:59:58.607Z,2.63
2023-03-06T11:02:29.051Z,3.03
2023-03-06T11:04:58.160Z,2.40
2023-03-06T11:07:33.230Z,2.10
2023-03-06T11:10:19.051Z,3.70
2023-03-06T11:13:02.730Z,4.10
